FGSLFKKD

Guest
Details From FGSL - MALABO
To FKKD - Douala
Flight Number -
Tags generated
Created
Modified
Stats Distance 63 nm / 116 km
Max Altitude 300 ft / 91 m
Waypoints 3
Social Downloads 3
Likes 0
Share VATSIM

Download

Looking for another format? Having issues loading an existing format? Contact us
Advertisement - Login to hide

Notes

Basic altitude profile: - Ascent Rate: 2500ft/min - Ascent Speed: 250kts - Cruise Altitude: 35000ft - Cruise Speed: 420kts - Descent Rate: 1500ft/min - Descent Speed: 250kts

Route

FGSL MBO FKKD

ID Type Via Altitude Latitude Longitude Leg Dist Tot Dist Heading (true) Name
O FGSL APT - 0 ft / 0 m 3.75527˚ 8.70872˚ - 0 nm - MALABO
MBO VOR - 300 ft / 91 m 3.76822˚ 8.72025˚ 1 nm 1 nm 42° / 42° MALABO VOR-DME
O FKKD APT - 0 ft / 0 m 4.01421˚ 9.71654˚ 61 nm 62 nm 76° / 76° Douala

Altitude Profile

Advertisement - Login to hide

FGSL

Details ICAO FGSL (SSG)
Name MALABO
Region Equatorial Guinea
Timezone Africa/Malabo (UTC+1.0)
Stats Elevation 76 ft / 23 m (AMSL)
Location 3.755267° 8.708717°
Runways 1
Magnetic Variation 1.366° W

METAR

FGSL 212300Z VRB02KT 9999 FEW012 24/22 Q1012 NOSIG

Decode

TAF

TAF FGSL 211700Z 2118/2224 23006KT 9999 SCT010 TEMPO 2120/2202 TS BKN010 FEW020CB TEMPO 2202/2208 4000 TSRA BKN008 FEW018CB BECMG 2208/2210 BKN010 TEMPO 2218/2224 TS SCT010 FEW020CB

Decode

Departure Runways

ID Width Length Bearing (true) Bearing (mag) Surface Threshold Offset Overrun Length
05 151 ft / 46 m 9,642 ft / 2,939 m 41.72° 43.09° Concrete 0 ft / 0 m 0 ft / 0 m
23 151 ft / 46 m 9,642 ft / 2,939 m 221.72° 223.09° Concrete 0 ft / 0 m 161 ft / 49 m

FKKD

Details ICAO FKKD (DLA)
Name Douala
Region Cameroon
Timezone Africa/Douala (UTC+1.0)
Stats Elevation 33 ft / 10 m (AMSL)
Location 4.014208° 9.716538°
Runways 2
Magnetic Variation 1.054° W

METAR

FKKD 212300Z 00000KT 9999 SCT013 FEW016CB 25/25 Q1011 NOSIG

Decode

TAF

TAF FKKD 211700Z 2118/2224 VRB05KT 9999 BKN013 FEW026CB TEMPO 2122/2207 TS PROB30 2122/2202 3000 TSRA BECMG 2206/2208 BKN016 FEW020CB

Decode

Destination Runways

ID Width Length Bearing (true) Bearing (mag) Surface Threshold Offset Overrun Length
03 147 ft / 45 m 8,210 ft / 2,502 m 27.00° 28.05° Asphalt 350 ft / 107 m 0 ft / 0 m
12 148 ft / 45 m 9,363 ft / 2,854 m 116.94° 117.99° Asphalt 0 ft / 0 m 164 ft / 50 m
21 147 ft / 45 m 8,210 ft / 2,502 m 207.00° 208.05° Asphalt 350 ft / 107 m 0 ft / 0 m
30 148 ft / 45 m 9,363 ft / 2,854 m 296.94° 297.99° Asphalt 0 ft / 0 m 164 ft / 50 m

Approach Navaids

Runway Type Ident Frequency Range Bearing (true) Bearing (mag) Slope Elevation
30 Localiser DL 110.30 MHz 18 nm / 33 km 297.68° 298.73° - 25 ft / 8 m (AMSL)
30 Glidescope DL 110.30 MHz 10 nm / 19 km 296.94° 297.99° 3.00° 33 ft / 10 m (AMSL)
30 DME DL 110.30 MHz 18 nm / 33 km - - - 33 ft / 10 m (AMSL)

Popular Alternatives